Time;durP1;ratioP1;P1;durP2;ratioP2;P2;SDS_P1;SDS_P2;PMS_P1;PMS_P2;Temp;Humidity;BMP_temperature;BMP_pressure;BME280_temperature;BME280_humidity;BME280_pressure;Samples;Min_cycle;Max_cycle;Signal;HPM_P1;HPM_P2
2023/05/10 00:02:20;;;;;;;0.47;0.30;;;;;;;20.47;46.49;100806.84;16114943;19;130612;-52
2023/05/10 00:07:44;;;;;;;1.50;0.55;;;;;;;20.46;46.37;100802.38;16116334;19;130095;-49
2023/05/10 00:13:06;;;;;;;3.30;1.00;;;;;;;20.45;46.07;100807.13;16115130;19;133323;-47
2023/05/10 00:18:28;;;;;;;1.23;0.60;;;;;;;20.44;46.24;100796.25;16110945;19;131115;-51
2023/05/10 00:23:50;;;;;;;0.63;0.50;;;;;;;20.43;46.56;100800.97;16117259;19;130995;-48
2023/05/10 00:29:12;;;;;;;0.75;0.50;;;;;;;20.41;46.14;100800.41;16119858;19;129539;-49
2023/05/10 00:34:33;;;;;;;4.88;0.60;;;;;;;20.41;46.60;100805.13;16114907;19;130257;-50
2023/05/10 00:39:55;;;;;;;1.10;0.50;;;;;;;20.40;46.17;100797.88;16115645;19;129652;-46
2023/05/10 00:45:17;;;;;;;0.45;0.45;;;;;;;20.39;46.31;100807.31;16118700;19;131236;-51
2023/05/10 00:50:39;;;;;;;0.95;0.40;;;;;;;20.37;46.48;100803.97;16121447;19;129689;-48
2023/05/10 00:56:03;;;;;;;4.90;0.73;;;;;;;20.37;46.52;100795.63;16118256;19;130738;-47
2023/05/10 01:01:25;;;;;;;2.03;0.60;;;;;;;20.36;46.17;100802.28;16113805;19;130757;-51
2023/05/10 01:06:47;;;;;;;0.40;0.40;;;;;;;20.34;46.17;100797.00;16114828;19;130196;-47
2023/05/10 01:12:09;;;;;;;0.55;0.47;;;;;;;20.33;46.16;100794.47;16118315;19;130072;-50
2023/05/10 01:17:31;;;;;;;1.88;0.50;;;;;;;20.32;46.14;100798.34;16110717;19;130261;-48
2023/05/10 01:23:30;;;;;;;0.85;0.50;;;;;;;20.33;46.22;100798.09;16115529;19;130784;-50
2023/05/10 01:29:07;;;;;;;1.65;0.60;;;;;;;20.31;46.50;100802.25;16115632;19;130022;-49
2023/05/10 01:34:37;;;;;;;0.57;0.40;;;;;;;20.31;46.45;100799.47;16113180;19;130356;-49
2023/05/10 01:40:18;;;;;;;1.52;0.60;;;;;;;20.30;46.50;100804.16;16108831;19;130954;-49
2023/05/10 01:45:49;;;;;;;0.70;0.43;;;;;;;20.28;46.08;100801.66;16114023;19;130728;-48
2023/05/10 01:51:12;;;;;;;3.80;0.70;;;;;;;20.26;46.47;100798.28;16113481;19;129384;-49
2023/05/10 01:56:40;;;;;;;1.00;0.60;;;;;;;20.27;46.29;100808.31;16114489;19;129813;-47
2023/05/10 02:02:04;;;;;;;2.72;0.60;;;;;;;20.24;46.53;100811.59;16109750;19;130861;-48
2023/05/10 02:07:28;;;;;;;1.38;0.40;;;;;;;20.23;46.56;100821.03;16110866;19;133245;-47
2023/05/10 02:12:53;;;;;;;1.35;0.60;;;;;;;20.23;46.15;100825.75;16114056;19;130111;-52
2023/05/10 02:18:16;;;;;;;1.90;0.50;;;;;;;20.21;46.27;100817.66;16102248;19;129346;-48
2023/05/10 02:23:39;;;;;;;0.60;0.50;;;;;;;20.21;46.24;100834.34;16109232;19;129830;-51
2023/05/10 02:29:06;;;;;;;1.65;0.50;;;;;;;20.20;46.25;100841.00;16108904;19;130400;-51
2023/05/10 02:34:29;;;;;;;0.80;0.60;;;;;;;20.20;46.04;100846.53;16108226;19;130417;-51
2023/05/10 02:39:54;;;;;;;0.85;0.50;;;;;;;20.19;46.35;100850.41;16108805;19;129472;-53
2023/05/10 02:45:20;;;;;;;0.70;0.52;;;;;;;20.18;46.17;100854.31;16108444;19;131219;-48
2023/05/10 02:50:44;;;;;;;;;;;;;;;20.15;46.28;100857.59;16104663;19;130728;-49
2023/05/10 02:56:14;;;;;;;0.98;0.40;;;;;;;20.18;46.23;100861.81;16111202;19;129642;-48
2023/05/10 03:01:36;;;;;;;0.65;0.52;;;;;;;20.14;46.11;100859.53;16105020;19;129401;-48
2023/05/10 03:06:58;;;;;;;1.27;0.60;;;;;;;20.14;46.01;100853.16;16103808;19;131073;-50
2023/05/10 03:12:53;;;;;;;0.68;0.57;;;;;;;20.15;46.24;100852.06;16105393;19;129575;-52
2023/05/10 03:18:36;;;;;;;0.57;0.50;;;;;;;20.13;46.46;100851.47;16104021;19;129275;-51
2023/05/10 03:24:08;;;;;;;2.08;0.63;;;;;;;20.13;46.17;100857.03;16104695;19;131189;-48
2023/05/10 03:29:31;;;;;;;1.30;0.65;;;;;;;20.11;46.24;100864.78;16105802;19;131477;-51
2023/05/10 03:34:53;;;;;;;0.50;0.45;;;;;;;20.10;46.50;100858.38;16123715;19;129741;-50
2023/05/10 03:40:15;;;;;;;1.48;0.60;;;;;;;20.09;45.95;100865.03;16121197;19;129725;-49
2023/05/10 03:45:38;;;;;;;1.23;0.63;;;;;;;20.09;46.16;100866.97;16120525;19;130535;-51
2023/05/10 03:50:59;;;;;;;0.77;0.70;;;;;;;20.08;45.92;100871.69;16120398;19;129894;-51
2023/05/10 03:56:21;;;;;;;0.73;0.60;;;;;;;20.07;46.15;100872.78;16116983;19;131690;-50
2023/05/10 04:01:43;;;;;;;1.05;0.50;;;;;;;20.07;46.33;100881.13;16121061;19;129695;-51
2023/05/10 04:07:05;;;;;;;1.77;0.88;;;;;;;20.06;46.31;100875.81;16117561;19;131261;-51
2023/05/10 04:12:27;;;;;;;1.58;1.20;;;;;;;20.05;46.16;100886.06;16114937;19;130415;-47
2023/05/10 04:17:50;;;;;;;3.33;2.50;;;;;;;20.04;45.82;100883.56;16118051;19;131145;-50
2023/05/10 04:23:13;;;;;;;2.60;1.92;;;;;;;20.03;46.24;100891.03;16115677;19;131323;-50
2023/05/10 04:28:35;;;;;;;3.33;2.08;;;;;;;20.03;46.11;100881.88;16116373;19;130097;-49
2023/05/10 04:33:57;;;;;;;2.38;1.90;;;;;;;20.02;46.05;100899.66;16118834;19;131555;-52
2023/05/10 04:39:19;;;;;;;2.85;2.20;;;;;;;20.01;45.99;100895.19;16115090;19;129937;-50
2023/05/10 04:44:41;;;;;;;2.60;2.10;;;;;;;20.01;45.82;100901.56;16113071;19;130800;-48
2023/05/10 04:50:06;;;;;;;1.58;1.45;;;;;;;20.01;46.02;100897.97;16114355;19;130596;-46
2023/05/10 04:55:28;;;;;;;2.00;1.70;;;;;;;19.99;45.80;100884.31;16111226;19;131070;-49
2023/05/10 05:00:49;;;;;;;1.83;1.45;;;;;;;19.99;46.22;100887.94;16114339;19;131458;-47
2023/05/10 05:06:11;;;;;;;3.75;1.45;;;;;;;19.97;46.10;100884.56;16116560;19;130713;-46
2023/05/10 05:11:33;;;;;;;1.48;1.30;;;;;;;20.02;46.11;100899.66;16113075;19;131315;-47
2023/05/10 05:16:55;;;;;;;1.83;1.15;;;;;;;20.09;45.74;100903.91;16112154;19;130571;-47
2023/05/10 05:22:19;;;;;;;1.58;1.38;;;;;;;20.16;45.55;100908.44;16111194;19;130514;-46
2023/05/10 05:27:41;;;;;;;8.48;1.90;;;;;;;20.19;45.83;100919.84;16114222;19;129530;-52
2023/05/10 05:33:03;;;;;;;17.70;4.35;;;;;;;20.23;45.56;100920.22;16109727;19;130940;-48
2023/05/10 05:38:25;;;;;;;23.50;5.78;;;;;;;20.26;45.86;100919.69;16112333;19;130168;-47
2023/05/10 05:43:47;;;;;;;21.45;6.38;;;;;;;20.34;45.57;100932.28;16114890;19;129879;-48
2023/05/10 05:49:09;;;;;;;20.92;6.05;;;;;;;20.35;45.44;100926.47;16112873;19;129736;-50
2023/05/10 05:54:32;;;;;;;20.73;5.88;;;;;;;20.35;45.49;100928.41;16111104;19;130893;-51
2023/05/10 05:59:54;;;;;;;13.30;5.80;;;;;;;20.32;45.49;100935.31;16105767;19;130669;-49
2023/05/10 06:05:16;;;;;;;24.30;6.68;;;;;;;20.31;45.59;100943.94;16112858;19;129610;-48
2023/05/10 06:10:38;;;;;;;26.30;7.45;;;;;;;20.29;45.72;100952.50;16112434;19;130105;-49
2023/05/10 06:16:02;;;;;;;31.92;6.93;;;;;;;20.25;45.56;100952.19;16114240;19;130015;-45
2023/05/10 06:21:24;;;;;;;27.52;6.55;;;;;;;20.22;45.80;100958.25;16114001;19;130386;-49
2023/05/10 06:26:46;;;;;;;24.73;7.65;;;;;;;20.21;45.56;100961.28;16115942;19;129674;-47
2023/05/10 06:32:08;;;;;;;20.10;6.32;;;;;;;20.19;45.62;100958.75;16113975;19;129647;-45
2023/05/10 06:37:29;;;;;;;16.67;6.22;;;;;;;20.16;45.49;100975.94;16114835;19;129666;-49
2023/05/10 06:42:51;;;;;;;16.73;6.65;;;;;;;20.13;45.70;100971.72;16115739;19;130275;-48
2023/05/10 06:48:13;;;;;;;15.82;7.57;;;;;;;20.12;45.75;100981.16;16113137;19;130760;-50
2023/05/10 06:53:35;;;;;;;20.88;7.57;;;;;;;20.12;45.51;100988.66;16114704;19;129632;-46
2023/05/10 06:58:57;;;;;;;24.60;8.30;;;;;;;20.10;45.81;101004.72;16114786;19;130765;-48
2023/05/10 07:04:19;;;;;;;17.58;7.90;;;;;;;20.08;45.40;101010.53;16115650;19;129316;-51
2023/05/10 07:09:41;;;;;;;18.20;7.53;;;;;;;20.07;45.47;101013.56;16129279;19;130084;-52
2023/05/10 07:15:04;;;;;;;14.95;6.70;;;;;;;20.06;45.74;101018.28;16131985;19;129752;-50
2023/05/10 07:20:26;;;;;;;20.90;8.05;;;;;;;20.01;45.79;101020.97;16129903;19;129665;-46
2023/05/10 07:25:49;;;;;;;11.85;7.22;;;;;;;20.01;45.84;101023.75;16128697;19;129584;-49
2023/05/10 07:31:11;;;;;;;10.98;6.05;;;;;;;20.02;45.46;101017.09;16128906;19;129735;-50
2023/05/10 07:36:33;;;;;;;13.18;5.80;;;;;;;20.03;45.71;101015.19;16127894;19;129277;-51
2023/05/10 07:41:55;;;;;;;14.27;5.75;;;;;;;20.07;45.80;101027.44;16124485;19;129572;-50
2023/05/10 07:47:17;;;;;;;10.07;4.90;;;;;;;20.13;45.75;101029.22;16126926;19;129484;-49
2023/05/10 07:52:39;;;;;;;14.30;5.32;;;;;;;20.20;45.57;101042.94;16127105;19;129674;-47
2023/05/10 07:58:01;;;;;;;6.68;4.78;;;;;;;20.24;45.70;101047.72;16124831;19;130841;-51
2023/05/10 08:03:23;;;;;;;8.07;4.95;;;;;;;20.29;45.24;101053.38;16127223;19;129535;-47
2023/05/10 08:08:50;;;;;;;11.93;6.78;;;;;;;20.32;45.04;101065.06;16124807;19;130016;-50
2023/05/10 08:14:12;;;;;;;13.18;8.05;;;;;;;20.34;44.66;101055.38;16119308;19;129850;-46
2023/05/10 08:19:34;;;;;;;11.25;7.43;;;;;;;20.37;44.50;101065.97;16122148;19;129989;-51
2023/05/10 08:24:55;;;;;;;8.73;6.68;;;;;;;20.38;44.77;101055.72;16123116;19;130243;-46
2023/05/10 08:30:17;;;;;;;8.88;7.20;;;;;;;20.38;44.74;101061.25;16123076;19;129587;-47
2023/05/10 08:35:39;;;;;;;13.32;6.78;;;;;;;20.41;44.46;101058.00;16125528;19;129602;-49
2023/05/10 08:41:02;;;;;;;13.60;5.90;;;;;;;20.45;44.09;101070.25;16125481;19;134398;-51
2023/05/10 08:46:27;;;;;;;9.25;5.72;;;;;;;20.47;44.20;101064.47;16127691;19;129193;-46
2023/05/10 08:51:55;;;;;;;8.60;5.20;;;;;;;20.52;44.18;101070.94;16123234;19;130013;-53
2023/05/10 08:57:17;;;;;;;8.80;5.40;;;;;;;20.56;44.44;101080.41;16123480;19;131810;-45
2023/05/10 09:02:39;;;;;;;7.32;4.63;;;;;;;20.60;44.49;101078.00;16123935;19;129140;-50
2023/05/10 09:08:01;;;;;;;8.27;4.53;;;;;;;20.62;44.06;101078.56;16124214;19;130591;-48
2023/05/10 09:13:24;;;;;;;10.82;5.00;;;;;;;20.63;44.55;101084.97;16123192;19;129628;-49
2023/05/10 09:18:46;;;;;;;7.22;4.05;;;;;;;20.62;44.48;101084.13;16120125;19;130688;-48
2023/05/10 09:24:09;;;;;;;5.25;4.05;;;;;;;20.63;44.56;101101.66;16118185;19;129516;-46
2023/05/10 09:29:41;;;;;;;7.75;4.35;;;;;;;20.67;44.10;101108.38;16118492;19;131151;-47
2023/05/10 09:35:11;;;;;;;6.07;4.18;;;;;;;20.68;44.41;101105.34;16119649;19;129459;-50
2023/05/10 09:40:32;;;;;;;5.82;3.65;;;;;;;20.71;44.28;101103.97;16120296;19;130604;-49
2023/05/10 09:45:55;;;;;;;6.25;3.90;;;;;;;20.74;44.18;101109.03;16118253;19;129044;-48
2023/05/10 09:51:21;;;;;;;5.85;3.83;;;;;;;20.73;44.05;101108.22;16117699;19;129378;-51
2023/05/10 09:56:43;;;;;;;4.20;3.63;;;;;;;20.75;43.85;101111.56;16119580;19;129299;-50
2023/05/10 10:02:06;;;;;;;7.22;3.90;;;;;;;20.77;43.97;101122.47;16116653;19;130411;-47
2023/05/10 10:07:28;;;;;;;5.75;3.90;;;;;;;20.79;43.74;101116.63;16114901;19;129322;-51
2023/05/10 10:12:51;;;;;;;4.90;3.72;;;;;;;20.78;44.00;101121.38;16115146;19;129936;-50
2023/05/10 10:18:15;;;;;;;4.72;3.70;;;;;;;20.75;44.04;101124.63;16115999;19;129463;-50
2023/05/10 10:23:37;;;;;;;4.15;3.42;;;;;;;20.68;44.14;101137.84;16113455;19;129515;-49
2023/05/10 10:29:11;;;;;;;9.65;4.30;;;;;;;20.63;44.39;101140.56;16116284;19;129910;-50
2023/05/10 10:34:33;;;;;;;11.60;4.50;;;;;;;20.55;44.28;101145.47;16109697;19;130349;-48
2023/05/10 10:39:55;;;;;;;10.85;4.05;;;;;;;20.52;44.24;101139.56;16118055;19;131026;-49
2023/05/10 10:45:17;;;;;;;14.82;4.03;;;;;;;20.49;44.20;101151.19;16129906;19;130185;-50
2023/05/10 10:50:46;;;;;;;15.10;4.15;;;;;;;20.49;44.25;101157.59;16131742;19;129431;-48
2023/05/10 10:56:11;;;;;;;13.82;4.00;;;;;;;20.46;44.46;101152.53;16132358;19;129721;-51
2023/05/10 11:01:36;;;;;;;12.57;3.70;;;;;;;20.46;44.25;101149.75;16126213;19;129244;-50
2023/05/10 11:07:17;;;;;;;10.75;4.25;;;;;;;20.45;44.25;101142.50;16126462;19;129625;-50
2023/05/10 11:13:00;;;;;;;8.15;3.70;;;;;;;20.46;44.70;101144.19;16129873;19;130750;-52
2023/05/10 11:18:27;;;;;;;11.50;3.83;;;;;;;20.45;44.34;101146.16;16127344;19;130389;-46
2023/05/10 11:23:51;;;;;;;6.63;3.53;;;;;;;20.45;44.39;101143.38;16124829;19;129622;-45
2023/05/10 11:29:13;;;;;;;10.45;3.22;;;;;;;20.46;44.35;101149.75;16126700;19;129152;-47
2023/05/10 11:34:35;;;;;;;4.82;2.72;;;;;;;20.47;44.41;101143.09;16125148;19;129000;-53
2023/05/10 11:39:57;;;;;;;9.23;2.92;;;;;;;20.50;44.76;101148.16;16124665;19;130765;-52
2023/05/10 11:45:19;;;;;;;12.38;2.90;;;;;;;20.52;44.68;101157.09;16122898;19;130334;-48
2023/05/10 11:50:41;;;;;;;10.23;3.53;;;;;;;20.54;44.27;101145.72;16124837;19;129373;-49
2023/05/10 11:56:07;;;;;;;6.80;2.90;;;;;;;20.55;44.50;101151.03;16125276;19;131556;-50
2023/05/10 12:01:29;;;;;;;8.88;2.33;;;;;;;20.56;44.42;101144.34;16127931;19;129766;-51
2023/05/10 12:06:51;;;;;;;7.18;2.40;;;;;;;20.60;44.14;101141.91;16123972;19;129304;-50
2023/05/10 12:12:16;;;;;;;7.40;2.10;;;;;;;20.67;44.04;101148.13;16126292;19;130934;-51
2023/05/10 12:17:40;;;;;;;4.57;1.98;;;;;;;20.74;43.89;101136.84;16135603;19;129634;-53
2023/05/10 12:23:05;;;;;;;5.20;2.20;;;;;;;20.82;44.01;101146.72;16137049;19;130907;-51
2023/05/10 12:28:30;;;;;;;4.63;1.90;;;;;;;20.88;43.70;101146.53;16134584;19;129442;-52
2023/05/10 12:33:52;;;;;;;6.93;1.60;;;;;;;20.93;43.83;101147.69;16131566;19;129881;-54
2023/05/10 12:39:14;;;;;;;4.25;1.55;;;;;;;20.97;43.75;101154.44;16131007;19;129849;-53
2023/05/10 12:44:36;;;;;;;5.38;1.90;;;;;;;20.99;43.44;101153.06;16131276;19;130395;-52
2023/05/10 12:50:00;;;;;;;3.65;1.30;;;;;;;21.00;43.68;101151.97;16130402;19;129603;-52
2023/05/10 12:55:22;;;;;;;5.97;1.93;;;;;;;21.03;43.76;101147.84;16135406;19;129648;-53
2023/05/10 13:00:44;;;;;;;3.42;1.52;;;;;;;21.05;43.63;101165.09;16133260;19;129552;-53
2023/05/10 13:06:06;;;;;;;4.30;1.23;;;;;;;21.07;43.63;101162.91;16130157;19;130726;-52
2023/05/10 13:11:28;;;;;;;2.70;1.30;;;;;;;21.09;43.72;101160.72;16125915;19;128944;-51
2023/05/10 13:16:50;;;;;;;2.75;1.23;;;;;;;21.10;43.47;101162.41;16122257;19;130438;-51
2023/05/10 13:22:12;;;;;;;3.78;1.40;;;;;;;21.12;43.62;101167.69;16118986;19;130486;-49
2023/05/10 13:27:34;;;;;;;3.95;1.38;;;;;;;21.14;43.49;101174.69;16122301;19;131149;-52
2023/05/10 13:32:55;;;;;;;2.25;1.30;;;;;;;21.15;43.44;101176.38;16119412;19;130161;-50
2023/05/10 13:38:17;;;;;;;4.38;1.38;;;;;;;21.17;43.11;101173.34;16115437;19;131108;-48
2023/05/10 13:43:42;;;;;;;4.35;1.33;;;;;;;21.18;43.33;101173.06;16118580;19;130841;-50
2023/05/10 13:49:04;;;;;;;4.90;1.00;;;;;;;21.20;43.36;101168.09;16118217;19;130787;-48
2023/05/10 13:54:29;;;;;;;3.97;1.23;;;;;;;21.22;42.98;101174.25;16119043;19;131687;-50
2023/05/10 13:59:52;;;;;;;2.95;1.13;;;;;;;21.21;43.33;101174.50;16120159;19;129706;-50
2023/05/10 14:05:16;;;;;;;3.60;1.05;;;;;;;21.20;43.20;101170.03;16117224;19;130200;-53
2023/05/10 14:10:44;;;;;;;1.52;0.93;;;;;;;21.17;43.42;101163.03;16115619;19;129570;-48
2023/05/10 14:16:06;;;;;;;2.63;1.10;;;;;;;21.13;43.01;101167.47;16113315;19;129429;-51
2023/05/10 14:21:31;;;;;;;2.60;0.98;;;;;;;21.11;43.07;101166.03;16118214;19;129534;-48
2023/05/10 14:26:53;;;;;;;4.68;1.00;;;;;;;21.07;43.09;101165.69;16116828;19;130794;-54
2023/05/10 14:32:15;;;;;;;3.80;1.23;;;;;;;21.05;43.58;101167.88;16113790;19;130113;-46
2023/05/10 14:37:37;;;;;;;3.58;1.10;;;;;;;21.02;43.40;101152.56;16114328;19;129655;-50
2023/05/10 14:42:59;;;;;;;1.13;0.80;;;;;;;21.00;43.38;101168.66;16113218;19;129576;-48
2023/05/10 14:48:21;;;;;;;2.78;0.70;;;;;;;20.98;43.43;101161.69;16117643;19;129555;-51
2023/05/10 14:53:43;;;;;;;1.02;0.73;;;;;;;20.96;43.32;101158.31;16118383;19;130857;-50
2023/05/10 14:59:04;;;;;;;2.45;0.93;;;;;;;20.93;43.64;101159.66;16115391;19;131602;-50
2023/05/10 15:04:27;;;;;;;1.67;1.00;;;;;;;20.93;43.38;101167.16;16116803;19;129654;-48
2023/05/10 15:09:51;;;;;;;3.67;1.27;;;;;;;20.87;43.28;101164.31;16113086;19;130442;-51
2023/05/10 15:15:13;;;;;;;1.88;1.30;;;;;;;20.83;43.30;101168.69;16111369;19;130676;-53
2023/05/10 15:20:35;;;;;;;5.07;1.50;;;;;;;20.81;43.46;101178.41;16111186;19;129508;-48
2023/05/10 15:25:57;;;;;;;4.95;1.65;;;;;;;20.81;43.44;101175.63;16116950;19;129402;-47
2023/05/10 15:31:19;;;;;;;2.88;1.40;;;;;;;20.80;43.26;101183.09;16132500;19;129454;-45
2023/05/10 15:36:41;;;;;;;2.33;1.10;;;;;;;20.80;43.46;101180.31;16129534;19;129376;-50
2023/05/10 15:42:03;;;;;;;2.05;1.30;;;;;;;20.79;43.65;101189.78;16124616;19;130898;-53
2023/05/10 15:47:27;;;;;;;2.03;1.00;;;;;;;20.78;43.45;101187.25;16126101;19;130043;-49
2023/05/10 15:52:49;;;;;;;2.55;1.52;;;;;;;20.77;43.37;101194.75;16125534;19;129456;-48
2023/05/10 15:58:11;;;;;;;2.33;1.17;;;;;;;20.77;43.38;101197.53;16124723;19;129903;-52
2023/05/10 16:03:33;;;;;;;3.92;1.10;;;;;;;20.75;43.63;101205.25;16123968;19;129756;-52
2023/05/10 16:08:57;;;;;;;3.17;1.20;;;;;;;20.74;43.76;101206.34;16121881;19;129549;-51
2023/05/10 16:14:23;;;;;;;2.55;1.02;;;;;;;20.74;43.56;101220.25;16123332;19;130258;-49
2023/05/10 16:19:46;;;;;;;;;;;;;;;20.69;43.54;101218.22;16123595;19;131086;-50
2023/05/10 16:25:08;;;;;;;4.38;0.93;;;;;;;20.69;43.45;101212.66;16124875;19;129586;-51
2023/05/10 16:30:33;;;;;;;4.57;1.20;;;;;;;20.68;43.54;101226.81;16125824;19;131233;-48
2023/05/10 16:35:54;;;;;;;1.95;0.80;;;;;;;20.67;43.48;101236.25;16122828;19;131367;-48
2023/05/10 16:41:16;;;;;;;2.60;0.70;;;;;;;20.66;43.42;101240.97;16113939;19;131611;-47
2023/05/10 16:46:39;;;;;;;1.65;0.90;;;;;;;20.67;43.83;101239.88;16117739;19;130344;-45
2023/05/10 16:52:02;;;;;;;3.45;0.88;;;;;;;20.68;43.39;101249.03;16120491;19;129334;-49
2023/05/10 16:57:24;;;;;;;4.32;0.60;;;;;;;20.66;43.80;101248.47;16120525;19;130447;-45
2023/05/10 17:02:46;;;;;;;1.08;0.73;;;;;;;20.65;43.76;101253.19;16124130;19;129475;-48
2023/05/10 17:08:09;;;;;;;1.48;0.70;;;;;;;20.63;43.83;101247.03;16116646;19;129697;-46
2023/05/10 17:13:31;;;;;;;2.22;0.60;;;;;;;20.62;43.40;101250.06;16119765;19;129736;-45
2023/05/10 17:18:52;;;;;;;1.45;0.60;;;;;;;20.57;43.49;101250.81;16116845;19;129826;-47
2023/05/10 17:24:14;;;;;;;1.10;0.88;;;;;;;20.54;43.42;101254.97;16114141;19;129463;-46
2023/05/10 17:29:36;;;;;;;1.20;0.50;;;;;;;20.53;43.92;101252.41;16115327;19;131379;-47
2023/05/10 17:34:58;;;;;;;0.88;0.50;;;;;;;20.51;43.90;101257.38;16109704;19;129446;-50
2023/05/10 17:40:20;;;;;;;0.45;0.38;;;;;;;20.48;43.99;101253.16;16109806;19;130416;-46
2023/05/10 17:45:43;;;;;;;2.55;0.60;;;;;;;20.47;43.78;101254.25;16116198;19;130636;-47
2023/05/10 17:51:05;;;;;;;0.80;0.40;;;;;;;20.45;43.57;101256.44;16115648;19;129598;-49
2023/05/10 17:56:27;;;;;;;0.50;0.50;;;;;;;20.45;43.67;101267.56;16115936;19;129197;-51
2023/05/10 18:01:49;;;;;;;0.90;0.40;;;;;;;20.43;43.96;101267.00;16115003;19;130063;-48
2023/05/10 18:07:11;;;;;;;0.40;0.30;;;;;;;20.42;44.12;101270.88;16114348;19;129508;-46
2023/05/10 18:12:33;;;;;;;1.20;0.30;;;;;;;20.40;44.00;101271.09;16115280;19;130767;-48
2023/05/10 18:17:55;;;;;;;1.50;0.45;;;;;;;20.45;44.02;101273.97;16110972;19;130981;-47
2023/05/10 18:23:17;;;;;;;1.75;0.40;;;;;;;20.53;43.92;101269.94;16107683;19;129768;-49
2023/05/10 18:28:39;;;;;;;3.90;0.60;;;;;;;20.60;43.86;101273.41;16116705;19;130650;-45
2023/05/10 18:34:01;;;;;;;3.30;1.10;;;;;;;20.66;43.95;101281.84;16114142;19;130129;-48
2023/05/10 18:39:23;;;;;;;4.93;0.95;;;;;;;20.72;44.05;101289.16;16107564;19;129540;-51
2023/05/10 18:44:45;;;;;;;4.13;0.60;;;;;;;20.79;43.73;101292.66;16137885;19;130491;-50
2023/05/10 18:50:07;;;;;;;2.85;0.90;;;;;;;20.83;43.58;101284.66;16133468;19;130178;-47
2023/05/10 18:55:29;;;;;;;7.95;0.73;;;;;;;20.84;43.38;101291.91;16134961;19;130617;-49
2023/05/10 19:00:52;;;;;;;3.88;0.65;;;;;;;20.85;43.55;101288.84;16118646;19;129719;-45
2023/05/10 19:06:14;;;;;;;1.73;0.60;;;;;;;20.89;43.55;101297.53;16120336;19;131353;-45
2023/05/10 19:11:36;;;;;;;2.90;0.60;;;;;;;20.94;43.29;101303.19;16121896;19;131322;-48
2023/05/10 19:16:57;;;;;;;3.28;0.60;;;;;;;20.99;43.18;101305.22;16119333;19;129496;-52
2023/05/10 19:22:19;;;;;;;2.63;0.52;;;;;;;21.05;43.09;101315.31;16121150;19;130082;-46
2023/05/10 19:28:02;;;;;;;6.47;0.90;;;;;;;21.10;43.34;101311.78;16120568;19;129786;-45
2023/05/10 19:33:24;;;;;;;2.30;0.57;;;;;;;21.13;43.43;101314.03;16124411;19;130254;-45
2023/05/10 19:38:46;;;;;;;4.53;0.68;;;;;;;21.14;43.55;101321.28;16126249;19;130200;-44
2023/05/10 19:44:08;;;;;;;8.85;1.00;;;;;;;21.12;44.30;101321.56;16124129;19;130553;-43
2023/05/10 19:49:30;;;;;;;10.10;1.10;;;;;;;21.18;44.51;101331.66;16124815;19;130390;-44
2023/05/10 19:54:52;;;;;;;3.88;0.80;;;;;;;21.24;45.03;101337.31;16121091;19;129107;-44
2023/05/10 20:00:14;;;;;;;6.97;0.80;;;;;;;21.30;45.42;101344.63;16122021;19;131166;-43
2023/05/10 20:05:36;;;;;;;6.80;0.93;;;;;;;21.34;45.87;101343.91;16127331;19;129919;-46
2023/05/10 20:10:59;;;;;;;2.95;0.50;;;;;;;21.40;46.03;101347.59;16120182;19;129553;-44
2023/05/10 20:16:21;;;;;;;5.55;0.77;;;;;;;21.42;46.40;101355.69;16117253;19;131691;-47
2023/05/10 20:21:46;;;;;;;8.30;0.93;;;;;;;21.42;46.33;101356.50;16119414;19;129745;-45
2023/05/10 20:27:08;;;;;;;5.85;0.77;;;;;;;21.40;46.88;101361.50;16111919;19;130938;-45
2023/05/10 20:32:31;;;;;;;6.85;0.70;;;;;;;21.40;47.30;101361.50;16110590;19;130765;-44
2023/05/10 20:37:53;;;;;;;4.75;0.93;;;;;;;21.36;47.03;101363.09;16119566;19;130675;-46
2023/05/10 20:43:15;;;;;;;5.18;1.00;;;;;;;21.29;47.25;101363.28;16119149;19;129302;-44
2023/05/10 20:48:37;;;;;;;5.13;0.80;;;;;;;21.25;47.72;101358.47;16119424;19;130483;-48
2023/05/10 20:54:03;;;;;;;6.35;0.60;;;;;;;21.18;47.52;101347.53;16116294;19;131644;-45
2023/05/10 20:59:24;;;;;;;;;;;;;;;21.09;47.77;101355.44;16116455;19;129397;-47
2023/05/10 21:04:46;;;;;;;7.50;0.80;;;;;;;21.05;47.61;101355.09;16121157;19;129177;-50
2023/05/10 21:10:10;;;;;;;5.15;0.70;;;;;;;20.99;47.46;101358.06;16122302;19;131479;-52
2023/05/10 21:15:32;;;;;;;2.63;0.65;;;;;;;20.93;47.79;101351.56;16116821;19;130890;-52
2023/05/10 21:20:54;;;;;;;3.08;0.60;;;;;;;20.86;47.75;101346.16;16115581;19;130519;-52
2023/05/10 21:26:16;;;;;;;6.20;1.08;;;;;;;20.83;47.87;101349.44;16116089;19;130883;-54
2023/05/10 21:31:37;;;;;;;4.80;0.75;;;;;;;20.79;47.93;101356.63;16115890;19;131804;-51
2023/05/10 21:37:00;;;;;;;4.50;0.63;;;;;;;20.76;47.99;101357.13;16115444;19;129493;-51
2023/05/10 21:42:22;;;;;;;4.05;0.60;;;;;;;20.73;47.98;101363.13;16115118;19;135174;-51
2023/05/10 21:47:44;;;;;;;2.28;0.75;;;;;;;20.69;47.88;101359.16;16116868;19;131578;-53
2023/05/10 21:53:06;;;;;;;2.90;0.60;;;;;;;20.66;47.94;101359.69;16113993;19;130455;-52
2023/05/10 21:58:28;;;;;;;4.18;0.70;;;;;;;20.64;48.37;101359.09;16107884;19;130513;-55
2023/05/10 22:03:49;;;;;;;4.53;0.75;;;;;;;20.62;48.47;101355.69;16107523;19;131204;-47
2023/05/10 22:09:11;;;;;;;1.95;0.38;;;;;;;20.60;48.31;101355.97;16106656;19;130721;-53
2023/05/10 22:14:33;;;;;;;3.80;0.80;;;;;;;20.57;48.54;101354.50;16102866;19;132121;-54
2023/05/10 22:19:55;;;;;;;2.00;0.70;;;;;;;20.56;48.27;101355.59;16105366;19;130709;-53
2023/05/10 22:25:17;;;;;;;2.60;0.60;;;;;;;20.56;48.34;101346.44;16101814;19;129539;-49
2023/05/10 22:30:41;;;;;;;1.52;0.47;;;;;;;20.55;48.27;101348.38;16105659;19;130228;-63
2023/05/10 22:36:03;;;;;;;1.90;0.70;;;;;;;20.55;48.28;101356.72;16107802;19;131016;-44
2023/05/10 22:41:25;;;;;;;6.05;1.20;;;;;;;20.51;47.78;101349.94;16125687;19;131659;-48
2023/05/10 22:46:47;;;;;;;9.07;1.52;;;;;;;20.48;48.03;101347.66;16126765;19;129914;-49
2023/05/10 22:52:09;;;;;;;7.85;1.58;;;;;;;20.47;47.83;101350.69;16126154;19;129391;-49
2023/05/10 22:57:32;;;;;;;8.10;2.08;;;;;;;20.46;47.76;101355.41;16119891;19;131314;-45
2023/05/10 23:02:54;;;;;;;8.15;1.45;;;;;;;20.45;47.66;101353.72;16123210;19;129864;-44
2023/05/10 23:08:16;;;;;;;7.00;1.48;;;;;;;20.44;47.40;101354.81;16121040;19;129563;-50
2023/05/10 23:13:37;;;;;;;8.45;1.65;;;;;;;20.44;47.58;101360.34;16116597;19;131396;-46
2023/05/10 23:18:59;;;;;;;6.03;1.60;;;;;;;20.41;47.80;101370.03;16116456;19;129794;-43
2023/05/10 23:24:21;;;;;;;8.27;1.70;;;;;;;20.38;47.80;101366.94;16120250;19;131291;-44
2023/05/10 23:29:43;;;;;;;6.05;1.20;;;;;;;20.35;47.85;101375.75;16120267;19;130205;-46
2023/05/10 23:35:05;;;;;;;7.75;1.65;;;;;;;20.30;47.86;101373.72;16121953;19;129592;-48
2023/05/10 23:40:27;;;;;;;3.17;1.42;;;;;;;20.28;47.45;101373.97;16122428;19;130019;-47
2023/05/10 23:45:56;;;;;;;4.80;1.35;;;;;;;20.28;47.46;101379.53;16118259;19;129547;-50
2023/05/10 23:51:18;;;;;;;6.05;1.23;;;;;;;20.25;47.48;101380.00;16116295;19;131235;-43
2023/05/10 23:56:40;;;;;;;3.20;1.23;;;;;;;20.23;47.46;101371.06;16115939;19;130490;-51
